Time;durP1;ratioP1;P1;durP2;ratioP2;P2;SDS_P1;SDS_P2;PMS_P1;PMS_P2;Temp;Humidity;BMP_temperature;BMP_pressure;BME280_temperature;BME280_humidity;BME280_pressure;Samples;Min_cycle;Max_cycle;Signal;HPM_P1;HPM_P2
2023/03/21 00:01:45;;;;;;;30.27;27.17;;;10.10;99.90;;;;;;5039580;28;20742;-75
2023/03/21 00:04:12;;;;;;;33.58;30.17;;;10.00;99.90;;;;;;5039433;28;20207;-77
2023/03/21 00:06:39;;;;;;;27.45;24.75;;;10.00;99.90;;;;;;5043042;28;20219;-73
2023/03/21 00:09:06;;;;;;;23.42;21.13;;;10.00;99.90;;;;;;5039889;28;20258;-75
2023/03/21 00:11:33;;;;;;;26.02;23.40;;;10.00;99.90;;;;;;5039908;28;20207;-73
2023/03/21 00:14:01;;;;;;;26.77;24.08;;;10.10;99.90;;;;;;5038667;28;20308;-73
2023/03/21 00:16:29;;;;;;;23.58;21.17;;;10.20;99.90;;;;;;5040052;28;20691;-74
2023/03/21 00:18:58;;;;;;;21.20;19.10;;;10.20;99.90;;;;;;5037811;28;20222;-74
2023/03/21 00:21:27;;;;;;;22.38;20.08;;;10.30;99.90;;;;;;5037165;28;20199;-74
2023/03/21 00:23:55;;;;;;;29.10;25.20;;;10.30;99.90;;;;;;5036742;28;20202;-73
2023/03/21 00:26:22;;;;;;;30.15;26.95;;;10.30;99.90;;;;;;5038102;28;20898;-75
2023/03/21 00:28:49;;;;;;;25.23;22.73;;;10.40;99.90;;;;;;5040768;28;20690;-77
2023/03/21 00:31:16;;;;;;;25.08;21.80;;;10.40;99.90;;;;;;5037271;28;20305;-73
2023/03/21 00:33:44;;;;;;;24.02;21.73;;;10.40;99.90;;;;;;5038865;28;20235;-76
2023/03/21 00:36:13;;;;;;;23.65;21.25;;;10.40;99.90;;;;;;5035466;28;20230;-72
2023/03/21 00:38:40;;;;;;;23.38;20.88;;;10.30;99.90;;;;;;5041451;28;20233;-76
2023/03/21 00:41:10;;;;;;;20.92;18.83;;;10.30;99.90;;;;;;5037286;28;20227;-71
2023/03/21 00:43:37;;;;;;;20.75;18.63;;;10.20;99.90;;;;;;5039768;28;20804;-73
2023/03/21 00:46:05;;;;;;;25.48;21.20;;;10.20;99.90;;;;;;5039337;28;20301;-76
2023/03/21 00:48:32;;;;;;;24.90;21.48;;;10.10;99.90;;;;;;5039579;28;20253;-73
2023/03/21 00:50:59;;;;;;;22.00;19.80;;;10.00;99.90;;;;;;5038953;28;20286;-73
2023/03/21 00:53:30;;;;;;;22.13;19.92;;;9.90;99.90;;;;;;5039913;28;20292;-74
2023/03/21 00:55:57;;;;;;;23.10;20.70;;;9.90;99.90;;;;;;5039692;28;20206;-74
2023/03/21 00:58:25;;;;;;;22.10;19.80;;;10.00;99.90;;;;;;5035723;28;20337;-74
2023/03/21 01:00:52;;;;;;;19.98;18.05;;;10.00;99.90;;;;;;5039535;28;20203;-73
2023/03/21 01:03:19;;;;;;;21.10;18.95;;;10.00;99.90;;;;;;5042927;28;20209;-73
2023/03/21 01:06:04;;;;;;;20.38;18.27;;;10.00;99.90;;;;;;5044323;28;20298;-73
2023/03/21 01:08:34;;;;;;;19.55;17.55;;;10.00;99.90;;;;;;5037195;28;20310;-74
2023/03/21 01:11:03;;;;;;;24.17;19.13;;;10.00;99.90;;;;;;5040887;28;20308;-74
2023/03/21 01:13:30;;;;;;;21.88;19.67;;;10.10;99.90;;;;;;5039251;28;20290;-73
2023/03/21 01:15:58;;;;;;;21.02;18.88;;;10.10;99.90;;;;;;5038838;28;20207;-74
2023/03/21 01:18:28;;;;;;;19.95;17.92;;;10.10;99.90;;;;;;5039185;28;20222;-77
2023/03/21 01:20:56;;;;;;;21.23;19.10;;;10.00;99.90;;;;;;5037989;28;20751;-72
2023/03/21 01:23:24;;;;;;;19.15;17.23;;;10.00;99.90;;;;;;5042527;28;20203;-73
2023/03/21 01:25:54;;;;;;;20.70;18.60;;;10.00;99.90;;;;;;5037445;28;20210;-77
2023/03/21 01:28:21;;;;;;;20.30;18.33;;;9.90;99.90;;;;;;5037245;28;20308;-73
2023/03/21 01:30:48;;;;;;;21.55;19.08;;;9.90;99.90;;;;;;5038417;28;20207;-75
2023/03/21 01:33:15;;;;;;;19.92;17.92;;;9.80;99.90;;;;;;5039105;28;20290;-74
2023/03/21 01:35:42;;;;;;;20.85;17.95;;;9.80;99.90;;;;;;5036893;28;20236;-74
2023/03/21 01:38:10;;;;;;;20.30;18.27;;;9.80;99.90;;;;;;5038140;28;20215;-75
2023/03/21 01:40:37;;;;;;;21.35;19.15;;;9.80;99.90;;;;;;5038269;28;20195;-78
2023/03/21 01:43:19;;;;;;;22.73;20.35;;;9.80;99.90;;;;;;5040048;28;20260;-75
2023/03/21 01:46:25;;;;;;;20.27;18.27;;;9.80;99.90;;;;;;5036858;28;20294;-73
2023/03/21 01:48:56;;;;;;;20.73;18.52;;;9.70;99.90;;;;;;5036099;28;20811;-72
2023/03/21 01:51:24;;;;;;;18.70;16.92;;;9.80;99.90;;;;;;5037655;28;20673;-74
2023/03/21 01:53:51;;;;;;;19.33;17.42;;;9.70;99.90;;;;;;5038430;28;20203;-74
2023/03/21 01:56:23;;;;;;;19.92;17.92;;;9.70;99.90;;;;;;5035149;28;20265;-75
2023/03/21 01:58:55;;;;;;;20.63;18.52;;;9.70;99.90;;;;;;5039803;28;20599;-75
2023/03/21 02:01:22;;;;;;;19.65;17.70;;;9.80;99.90;;;;;;5038329;28;20199;-74
2023/03/21 02:03:51;;;;;;;19.83;17.85;;;9.80;99.90;;;;;;5043158;28;20772;-72
2023/03/21 02:06:30;;;;;;;21.75;19.45;;;9.80;99.90;;;;;;5033852;28;20200;-73
2023/03/21 02:09:00;;;;;;;19.83;17.83;;;9.80;99.90;;;;;;5035678;28;20222;-73
2023/03/21 02:11:31;;;;;;;19.08;17.08;;;9.80;99.90;;;;;;5039362;28;20203;-73
2023/03/21 02:13:59;;;;;;;17.50;15.80;;;9.80;99.90;;;;;;5033573;28;20753;-73
2023/03/21 02:16:38;;;;;;;18.85;17.05;;;9.80;99.90;;;;;;5038194;28;20253;-75
2023/03/21 02:19:27;;;;;;;19.52;17.50;;;9.80;99.90;;;;;;5034014;28;20318;-73
2023/03/21 02:22:15;;;;;;;19.73;17.65;;;9.80;99.90;;;;;;5004274;28;20215;-73
2023/03/21 02:25:21;;;;;;;18.58;16.67;;;9.90;99.90;;;;;;5029201;28;20619;-74
2023/03/21 02:27:52;;;;;;;18.73;16.83;;;9.80;99.90;;;;;;5025618;28;20318;-74
2023/03/21 02:31:02;;;;;;;18.77;16.88;;;9.70;99.90;;;;;;5039646;28;20293;-74
2023/03/21 02:33:49;;;;;;;18.65;16.85;;;9.70;99.90;;;;;;5013904;28;20198;-74
2023/03/21 02:36:27;;;;;;;18.92;17.02;;;9.60;99.90;;;;;;5037318;28;20210;-74
2023/03/21 02:39:06;;;;;;;17.55;15.75;;;9.60;99.90;;;;;;5038481;28;20790;-72
2023/03/21 02:41:41;;;;;;;19.60;17.60;;;9.50;99.90;;;;;;5040259;28;20211;-72
2023/03/21 02:44:17;;;;;;;19.48;17.48;;;9.50;99.90;;;;;;5037149;28;20202;-73
2023/03/21 02:46:49;;;;;;;20.33;18.25;;;9.50;99.90;;;;;;5039457;28;20227;-73
2023/03/21 02:49:22;;;;;;;19.75;17.85;;;9.40;99.90;;;;;;5035475;28;20246;-73
2023/03/21 02:51:50;;;;;;;19.23;17.23;;;9.40;99.90;;;;;;5037167;28;20203;-73
2023/03/21 02:54:22;;;;;;;20.70;18.70;;;9.40;99.90;;;;;;5032661;28;20207;-74
2023/03/21 02:56:51;;;;;;;19.05;17.25;;;9.30;99.90;;;;;;5043076;28;20237;-72
2023/03/21 02:59:21;;;;;;;21.15;18.88;;;9.30;99.90;;;;;;5040898;28;20829;-73
2023/03/21 03:01:48;;;;;;;20.35;18.25;;;9.20;99.90;;;;;;5036877;28;20203;-73
2023/03/21 03:04:19;;;;;;;20.38;18.35;;;9.20;99.90;;;;;;5034629;28;20299;-73
2023/03/21 03:07:03;;;;;;;19.00;16.98;;;9.10;99.90;;;;;;5038314;28;20218;-74
2023/03/21 03:09:39;;;;;;;19.92;17.88;;;9.10;99.90;;;;;;5036410;28;20219;-72
2023/03/21 03:12:15;;;;;;;18.20;16.40;;;9.10;99.90;;;;;;5034456;28;20273;-74
2023/03/21 03:14:53;;;;;;;19.25;17.27;;;9.00;99.90;;;;;;5039327;28;20227;-72
2023/03/21 03:17:26;;;;;;;19.70;17.65;;;9.00;99.90;;;;;;5036884;28;20582;-75
2023/03/21 03:20:12;;;;;;;18.98;17.08;;;9.10;99.90;;;;;;5042047;28;20637;-73
2023/03/21 03:22:45;;;;;;;18.85;16.95;;;9.00;99.90;;;;;;5037602;28;20272;-72
2023/03/21 03:25:18;;;;;;;19.02;17.20;;;9.00;99.90;;;;;;5036665;28;20238;-74
2023/03/21 03:27:48;;;;;;;20.73;17.30;;;9.00;99.90;;;;;;5038035;28;20233;-73
2023/03/21 03:30:16;;;;;;;18.15;16.35;;;9.00;99.90;;;;;;5038958;28;20589;-72
2023/03/21 03:32:49;;;;;;;16.60;15.00;;;8.90;99.90;;;;;;5041465;28;20199;-74
2023/03/21 03:35:19;;;;;;;17.52;15.80;;;8.90;99.90;;;;;;5039275;28;20280;-73
2023/03/21 03:38:04;;;;;;;18.55;16.67;;;8.90;99.90;;;;;;5037683;28;20658;-74
2023/03/21 03:40:39;;;;;;;20.02;18.02;;;8.90;99.90;;;;;;5043169;28;20198;-72
2023/03/21 03:43:13;;;;;;;17.27;15.57;;;8.90;99.90;;;;;;5040418;28;20210;-72
2023/03/21 03:45:46;;;;;;;17.00;15.30;;;8.90;99.90;;;;;;5042098;28;20198;-75
2023/03/21 03:48:21;;;;;;;17.40;15.70;;;8.90;99.90;;;;;;5037785;28;20226;-73
2023/03/21 03:50:52;;;;;;;18.20;16.40;;;9.00;99.90;;;;;;5040708;28;20282;-74
2023/03/21 03:53:22;;;;;;;17.25;15.55;;;9.00;99.90;;;;;;5042949;28;20204;-73
2023/03/21 03:55:53;;;;;;;18.20;16.33;;;9.00;99.90;;;;;;5038772;28;20289;-73
2023/03/21 03:58:21;;;;;;;18.13;16.35;;;9.00;99.90;;;;;;5038168;28;20688;-74
2023/03/21 04:00:49;;;;;;;18.25;16.45;;;9.10;99.90;;;;;;5035628;28;20238;-74
2023/03/21 04:03:17;;;;;;;19.30;17.40;;;9.00;99.90;;;;;;5040979;28;20218;-74
2023/03/21 04:05:47;;;;;;;17.92;16.10;;;9.00;99.90;;;;;;5038516;28;20203;-72
2023/03/21 04:08:16;;;;;;;17.25;15.55;;;9.00;99.90;;;;;;5038409;28;20225;-75
2023/03/21 04:10:43;;;;;;;17.65;15.82;;;9.00;99.90;;;;;;5039012;28;20207;-74
2023/03/21 04:13:12;;;;;;;16.65;14.95;;;9.00;99.90;;;;;;5036123;28;20203;-74
2023/03/21 04:15:39;;;;;;;17.58;15.80;;;9.00;99.90;;;;;;5036373;28;20264;-74
2023/03/21 04:18:06;;;;;;;17.40;15.75;;;8.90;99.90;;;;;;5038365;28;20223;-74
2023/03/21 04:20:33;;;;;;;16.60;14.98;;;8.90;99.90;;;;;;5040882;28;20210;-75
2023/03/21 04:23:00;;;;;;;18.15;16.27;;;8.90;99.90;;;;;;5041574;28;20194;-75
2023/03/21 04:25:30;;;;;;;18.55;16.67;;;8.80;99.90;;;;;;5037469;28;20203;-73
2023/03/21 04:27:57;;;;;;;17.55;15.70;;;8.80;99.90;;;;;;5041772;28;20215;-76
2023/03/21 04:30:25;;;;;;;18.25;16.48;;;8.80;99.90;;;;;;5037065;28;20306;-74
2023/03/21 04:32:55;;;;;;;18.98;17.17;;;8.80;99.90;;;;;;5038107;28;20204;-74
2023/03/21 04:35:24;;;;;;;18.30;16.45;;;8.80;99.90;;;;;;5036792;28;20222;-71
2023/03/21 04:37:51;;;;;;;17.70;15.90;;;8.80;99.90;;;;;;5039051;28;20228;-74
2023/03/21 04:40:18;;;;;;;16.55;14.85;;;8.80;99.90;;;;;;5036673;28;20199;-73
2023/03/21 04:42:46;;;;;;;17.98;16.17;;;8.90;99.90;;;;;;5040562;28;20292;-75
2023/03/21 04:45:14;;;;;;;16.13;14.52;;;8.80;99.90;;;;;;5039110;28;20238;-72
2023/03/21 04:47:42;;;;;;;15.98;14.38;;;8.80;99.90;;;;;;5037188;28;20215;-75
2023/03/21 04:50:11;;;;;;;16.67;14.95;;;8.80;99.90;;;;;;5037258;28;20246;-73
2023/03/21 04:52:38;;;;;;;16.42;14.82;;;8.80;99.90;;;;;;5040158;28;20205;-75
2023/03/21 04:55:09;;;;;;;18.10;16.30;;;8.80;99.90;;;;;;5037323;28;20203;-73
2023/03/21 04:57:37;;;;;;;17.42;15.73;;;8.80;99.90;;;;;;5039970;28;20295;-76
2023/03/21 05:00:09;;;;;;;18.85;16.95;;;8.80;99.90;;;;;;5042352;28;20206;-73
2023/03/21 05:02:36;;;;;;;18.45;16.70;;;8.80;99.90;;;;;;5037512;28;20210;-73
2023/03/21 05:05:05;;;;;;;17.90;16.10;;;8.80;99.90;;;;;;5040984;28;20265;-73
2023/03/21 05:07:32;;;;;;;19.60;17.60;;;8.70;99.90;;;;;;5039905;28;20234;-72
2023/03/21 05:09:59;;;;;;;19.27;17.15;;;8.70;99.90;;;;;;5040646;28;20211;-73
2023/03/21 05:12:26;;;;;;;19.15;17.25;;;8.70;99.90;;;;;;5039929;28;20207;-74
2023/03/21 05:14:53;;;;;;;18.13;16.50;;;8.70;99.90;;;;;;5043809;28;20206;-73
2023/03/21 05:17:27;;;;;;;18.63;16.83;;;8.70;99.90;;;;;;5038421;28;20231;-73
2023/03/21 05:19:55;;;;;;;17.48;15.77;;;8.70;99.90;;;;;;5041522;28;20289;-75
2023/03/21 05:22:25;;;;;;;18.23;16.48;;;8.70;99.90;;;;;;5037335;28;20761;-76
2023/03/21 05:24:54;;;;;;;19.67;17.45;;;8.70;99.90;;;;;;5037513;28;20203;-72
2023/03/21 05:27:34;;;;;;;18.42;16.60;;;8.70;99.90;;;;;;5039968;28;20195;-75
2023/03/21 05:30:01;;;;;;;18.63;16.73;;;8.70;99.90;;;;;;5037555;28;20206;-73
2023/03/21 05:32:28;;;;;;;19.20;17.30;;;8.70;99.90;;;;;;5038202;28;20198;-75
2023/03/21 05:34:56;;;;;;;23.52;21.02;;;8.70;99.90;;;;;;5036550;28;20668;-73
2023/03/21 05:37:24;;;;;;;21.48;19.15;;;8.60;99.90;;;;;;5036067;28;20293;-74
2023/03/21 05:39:51;;;;;;;20.67;18.58;;;8.60;99.90;;;;;;5036572;28;20231;-74
2023/03/21 05:42:18;;;;;;;22.77;20.48;;;8.60;99.90;;;;;;5037581;28;20199;-73
2023/03/21 05:44:45;;;;;;;18.95;17.08;;;8.60;99.90;;;;;;5038862;28;20763;-73
2023/03/21 05:47:13;;;;;;;20.80;18.70;;;8.50;99.90;;;;;;5039898;28;20282;-74
2023/03/21 05:49:40;;;;;;;20.65;18.45;;;8.60;99.90;;;;;;5044037;28;20276;-74
2023/03/21 05:52:07;;;;;;;23.23;19.40;;;8.60;99.90;;;;;;5041635;28;20230;-73
2023/03/21 05:54:35;;;;;;;21.27;19.08;;;8.50;99.90;;;;;;5039250;28;20256;-73
2023/03/21 05:57:03;;;;;;;20.60;18.40;;;8.50;99.90;;;;;;5038074;28;20689;-74
2023/03/21 05:59:30;;;;;;;20.02;18.02;;;8.50;99.90;;;;;;5041722;28;20222;-74
2023/03/21 06:01:56;;;;;;;19.27;16.98;;;8.50;99.90;;;;;;5038333;28;20207;-73
2023/03/21 06:04:24;;;;;;;18.58;16.65;;;8.60;99.90;;;;;;5036314;28;20268;-73
2023/03/21 06:06:52;;;;;;;18.55;16.58;;;8.60;99.90;;;;;;5037664;28;20770;-73
2023/03/21 06:09:19;;;;;;;19.10;17.10;;;8.70;99.90;;;;;;5042320;28;20306;-71
2023/03/21 06:11:50;;;;;;;16.88;15.23;;;8.80;99.90;;;;;;5041240;28;20207;-75
2023/03/21 06:14:17;;;;;;;20.83;18.67;;;9.00;99.90;;;;;;5040460;28;20277;-75
2023/03/21 06:16:45;;;;;;;20.13;18.13;;;9.30;99.90;;;;;;5039384;28;20806;-74
2023/03/21 06:19:12;;;;;;;19.95;17.95;;;9.60;99.90;;;;;;5036607;28;20403;-74
2023/03/21 06:21:39;;;;;;;18.98;16.98;;;9.90;99.90;;;;;;5037818;28;20749;-74
2023/03/21 06:24:06;;;;;;;19.60;17.50;;;10.20;99.90;;;;;;5035048;28;20286;-72
2023/03/21 06:26:33;;;;;;;20.77;18.60;;;10.60;99.90;;;;;;5040743;28;20257;-74
2023/03/21 06:29:02;;;;;;;18.60;16.70;;;10.90;99.90;;;;;;5034304;28;20320;-74
2023/03/21 06:31:29;;;;;;;19.75;17.08;;;11.10;99.90;;;;;;5035001;28;20198;-73
2023/03/21 06:33:56;;;;;;;18.27;16.38;;;11.40;99.90;;;;;;5037058;28;20203;-74
2023/03/21 06:36:23;;;;;;;20.88;18.73;;;11.60;99.90;;;;;;5035361;28;20638;-77
2023/03/21 06:38:50;;;;;;;21.67;19.58;;;11.80;99.90;;;;;;5035622;28;20231;-74
2023/03/21 06:41:17;;;;;;;22.30;19.95;;;12.00;99.90;;;;;;5040376;28;20206;-73
2023/03/21 06:43:45;;;;;;;23.45;21.02;;;12.20;99.90;;;;;;5040565;28;20841;-74
2023/03/21 06:46:13;;;;;;;19.13;17.15;;;12.40;99.90;;;;;;5035170;28;20257;-75
2023/03/21 06:48:43;;;;;;;18.85;17.08;;;12.50;99.90;;;;;;5036724;28;20246;-75
2023/03/21 06:51:11;;;;;;;18.30;16.40;;;12.70;99.90;;;;;;5041475;28;20199;-75
2023/03/21 06:53:40;;;;;;;19.02;16.60;;;13.00;99.90;;;;;;5041172;28;20223;-74
2023/03/21 06:56:08;;;;;;;17.73;15.85;;;13.00;99.90;;;;;;5052621;28;20214;-75
2023/03/21 06:58:35;;;;;;;15.73;14.23;;;13.10;99.90;;;;;;5044781;28;20261;-75
2023/03/21 07:01:03;;;;;;;14.50;13.05;;;13.40;99.90;;;;;;5043571;28;20238;-74
2023/03/21 07:03:31;;;;;;;13.43;12.10;;;13.50;99.90;;;;;;5043283;28;20268;-75
2023/03/21 07:05:59;;;;;;;14.10;12.65;;;13.70;99.90;;;;;;5043130;28;20237;-75
2023/03/21 07:08:26;;;;;;;13.25;11.95;;;13.70;99.90;;;;;;5040467;28;20250;-74
2023/03/21 07:10:57;;;;;;;11.90;10.75;;;13.50;99.90;;;;;;5038561;28;20254;-74
2023/03/21 07:13:24;;;;;;;13.55;12.15;;;13.30;99.90;;;;;;5042086;28;20213;-76
2023/03/21 07:15:52;;;;;;;12.63;11.27;;;13.10;99.90;;;;;;5045237;28;20207;-76
2023/03/21 07:18:19;;;;;;;11.82;10.63;;;13.30;99.90;;;;;;5043070;28;20206;-77
2023/03/21 07:20:50;;;;;;;13.77;12.45;;;13.70;99.90;;;;;;5042794;28;20195;-74
2023/03/21 07:23:17;;;;;;;12.68;11.57;;;14.30;99.90;;;;;;5043493;28;20203;-75
2023/03/21 07:25:44;;;;;;;12.27;11.18;;;14.80;99.90;;;;;;5042548;28;20229;-75
2023/03/21 07:28:11;;;;;;;13.70;12.30;;;15.20;99.90;;;;;;5041084;28;20258;-77
2023/03/21 07:30:38;;;;;;;16.10;14.52;;;15.60;99.90;;;;;;5042196;28;20269;-75
2023/03/21 07:33:06;;;;;;;18.70;16.88;;;15.70;99.90;;;;;;5037834;28;20246;-76
2023/03/21 07:35:33;;;;;;;21.25;19.15;;;15.90;99.90;;;;;;5040576;28;20877;-75
2023/03/21 07:38:01;;;;;;;20.80;18.70;;;15.80;99.90;;;;;;5041781;28;20689;-74
2023/03/21 07:40:28;;;;;;;19.30;17.40;;;15.90;99.90;;;;;;5043816;28;20272;-75
2023/03/21 07:42:55;;;;;;;19.92;17.95;;;15.90;99.90;;;;;;5040948;28;20720;-74
2023/03/21 07:45:24;;;;;;;17.30;15.55;;;15.90;99.90;;;;;;5045050;28;20726;-75
2023/03/21 07:47:51;;;;;;;17.15;15.18;;;15.90;99.90;;;;;;5037499;28;20237;-74
2023/03/21 07:50:18;;;;;;;16.65;14.88;;;15.90;99.90;;;;;;5032293;28;20305;-74
2023/03/21 07:52:46;;;;;;;15.50;13.98;;;16.00;99.90;;;;;;5036194;28;20203;-74
2023/03/21 07:55:16;;;;;;;17.10;15.52;;;16.20;99.90;;;;;;5039643;28;20234;-75
2023/03/21 07:57:43;;;;;;;14.43;13.02;;;16.20;99.90;;;;;;5027462;28;20273;-74
2023/03/21 08:00:11;;;;;;;16.25;14.60;;;16.10;99.90;;;;;;5030078;28;20267;-75
2023/03/21 08:02:38;;;;;;;15.60;14.10;;;16.00;99.90;;;;;;5033375;28;20297;-75
2023/03/21 08:05:06;;;;;;;17.00;15.32;;;16.00;99.90;;;;;;5032249;28;20669;-75
2023/03/21 08:07:33;;;;;;;17.20;15.40;;;16.10;99.90;;;;;;5030684;28;20224;-75
2023/03/21 08:10:00;;;;;;;17.23;15.52;;;16.20;99.90;;;;;;5035660;28;20408;-73
2023/03/21 08:12:28;;;;;;;18.45;16.67;;;16.40;99.90;;;;;;5031702;28;20303;-76
2023/03/21 08:14:55;;;;;;;17.45;15.75;;;16.60;99.90;;;;;;5031473;28;20233;-74
2023/03/21 08:17:22;;;;;;;17.42;15.73;;;16.90;99.90;;;;;;5029999;28;20825;-75
2023/03/21 08:19:49;;;;;;;18.77;15.88;;;16.90;99.90;;;;;;5033696;28;20575;-73
2023/03/21 08:22:16;;;;;;;17.58;15.82;;;16.90;99.90;;;;;;5032108;28;20295;-74
2023/03/21 08:24:43;;;;;;;17.77;16.08;;;16.90;99.90;;;;;;5030664;28;20862;-74
2023/03/21 08:27:10;;;;;;;17.67;15.88;;;17.00;99.90;;;;;;5029494;28;20200;-72
2023/03/21 08:29:41;;;;;;;17.08;15.35;;;17.30;99.90;;;;;;5028769;28;20305;-73
2023/03/21 08:32:08;;;;;;;16.33;14.73;;;17.30;99.90;;;;;;5028953;28;20198;-73
2023/03/21 08:34:36;;;;;;;17.15;15.40;;;16.90;99.90;;;;;;5032593;28;20678;-73
2023/03/21 08:37:03;;;;;;;13.80;12.60;;;16.40;99.90;;;;;;5033217;28;20214;-72
2023/03/21 08:39:30;;;;;;;16.58;15.02;;;16.00;99.90;;;;;;5029086;28;20221;-73
2023/03/21 08:41:56;;;;;;;16.65;14.85;;;16.00;99.90;;;;;;5032015;28;21153;-75
2023/03/21 08:44:24;;;;;;;16.05;14.55;;;16.10;99.90;;;;;;5033579;28;20241;-74
2023/03/21 08:46:53;;;;;;;15.15;13.80;;;16.40;99.90;;;;;;5032556;28;20199;-73
2023/03/21 08:49:20;;;;;;;17.42;15.82;;;16.30;99.90;;;;;;5030385;28;20224;-76
2023/03/21 08:51:47;;;;;;;16.02;14.45;;;16.00;99.90;;;;;;5041173;28;20687;-74
2023/03/21 08:54:20;;;;;;;15.80;14.30;;;15.90;99.90;;;;;;5037065;28;20245;-72
2023/03/21 08:56:47;;;;;;;17.33;14.65;;;16.10;99.90;;;;;;5035024;28;20286;-76
2023/03/21 08:59:14;;;;;;;17.67;14.80;;;16.40;99.90;;;;;;5035361;28;20751;-75
2023/03/21 09:01:41;;;;;;;19.88;16.67;;;17.10;99.90;;;;;;5029566;28;20234;-77
2023/03/21 09:04:10;;;;;;;16.75;15.07;;;17.40;99.90;;;;;;5029979;28;20214;-74
2023/03/21 09:06:39;;;;;;;18.00;16.20;;;17.60;99.90;;;;;;5031436;28;20199;-75
2023/03/21 09:09:08;;;;;;;18.27;16.52;;;17.90;99.90;;;;;;5031056;28;20223;-73
2023/03/21 09:11:35;;;;;;;18.02;16.30;;;18.40;99.90;;;;;;5029667;28;20202;-74
2023/03/21 09:14:02;;;;;;;18.70;16.80;;;18.60;99.90;;;;;;5030633;28;21804;-74
2023/03/21 09:16:29;;;;;;;16.58;14.98;;;18.70;99.90;;;;;;5027731;28;20765;-75
2023/03/21 09:18:57;;;;;;;16.25;14.75;;;18.70;99.90;;;;;;5033076;28;20247;-73
2023/03/21 09:21:27;;;;;;;14.68;13.25;;;18.50;99.90;;;;;;5032831;28;20200;-74
2023/03/21 09:23:57;;;;;;;14.00;12.70;;;18.10;99.90;;;;;;5035504;28;20237;-74
2023/03/21 09:26:25;;;;;;;14.25;12.93;;;18.00;99.90;;;;;;5038235;28;20308;-74
2023/03/21 09:28:52;;;;;;;15.07;13.45;;;17.80;99.90;;;;;;5040324;28;20223;-74
2023/03/21 09:31:21;;;;;;;15.68;13.88;;;17.80;99.90;;;;;;5032798;28;20210;-75
2023/03/21 09:33:48;;;;;;;14.80;12.73;;;17.70;99.90;;;;;;5031923;28;20302;-75
2023/03/21 09:36:18;;;;;;;12.70;11.55;;;17.60;99.90;;;;;;5030063;28;20294;-74
2023/03/21 09:38:47;;;;;;;12.63;11.32;;;17.70;99.90;;;;;;5028370;28;20231;-73
2023/03/21 09:41:28;;;;;;;16.05;13.30;;;17.90;99.90;;;;;;5030494;28;20238;-73
2023/03/21 09:44:11;;;;;;;14.07;12.80;;;18.30;99.90;;;;;;5032830;28;20222;-71
2023/03/21 09:46:45;;;;;;;13.63;12.40;;;18.50;99.90;;;;;;5027655;28;21061;-72
2023/03/21 09:49:19;;;;;;;13.23;12.02;;;18.50;99.90;;;;;;5031431;28;20214;-74
2023/03/21 09:51:49;;;;;;;12.90;11.63;;;18.50;99.90;;;;;;5041451;28;20687;-74
2023/03/21 09:54:23;;;;;;;14.13;12.63;;;18.50;99.90;;;;;;5027603;28;20210;-73
2023/03/21 09:56:55;;;;;;;14.98;13.43;;;18.60;99.90;;;;;;5030540;28;20207;-73
2023/03/21 09:59:28;;;;;;;14.00;12.68;;;18.50;99.90;;;;;;5028354;28;20222;-73
2023/03/21 10:01:57;;;;;;;13.68;12.38;;;18.30;99.90;;;;;;5029919;28;20198;-76
2023/03/21 10:04:25;;;;;;;13.77;12.35;;;18.20;99.90;;;;;;5024600;28;20215;-75
2023/03/21 10:06:57;;;;;;;13.15;11.90;;;18.20;99.90;;;;;;5032605;28;20207;-74
2023/03/21 10:09:28;;;;;;;14.80;13.40;;;18.30;99.90;;;;;;5026362;28;20225;-73
2023/03/21 10:11:58;;;;;;;14.65;13.32;;;18.30;99.90;;;;;;5030240;28;20294;-73
2023/03/21 10:14:30;;;;;;;13.70;12.43;;;18.30;99.90;;;;;;5027231;28;20273;-76
2023/03/21 10:17:00;;;;;;;13.38;12.18;;;18.40;99.90;;;;;;5030878;28;20196;-75
2023/03/21 10:19:28;;;;;;;15.07;13.57;;;18.50;99.90;;;;;;5026280;28;20313;-74
2023/03/21 10:21:55;;;;;;;13.90;12.50;;;18.70;99.90;;;;;;5031684;28;20246;-75
2023/03/21 10:24:26;;;;;;;14.35;12.98;;;18.90;99.90;;;;;;5031968;28;20211;-74
2023/03/21 10:26:54;;;;;;;15.05;13.48;;;19.00;99.90;;;;;;5038024;28;20253;-74
2023/03/21 10:29:26;;;;;;;14.68;13.20;;;19.00;99.90;;;;;;5033330;28;20262;-74
2023/03/21 10:31:54;;;;;;;15.43;13.93;;;18.80;99.90;;;;;;5037174;28;20230;-75
2023/03/21 10:34:28;;;;;;;13.05;11.75;;;18.70;99.90;;;;;;5031627;28;20234;-72
2023/03/21 10:36:55;;;;;;;13.40;11.93;;;18.80;99.90;;;;;;5032493;28;20294;-74
2023/03/21 10:39:27;;;;;;;14.55;13.05;;;19.20;99.90;;;;;;5035182;28;20246;-74
2023/03/21 10:41:55;;;;;;;14.43;13.02;;;19.20;99.90;;;;;;5032546;28;20207;-74
2023/03/21 10:44:29;;;;;;;15.50;13.85;;;19.10;99.90;;;;;;5036152;28;20199;-75
2023/03/21 10:46:58;;;;;;;13.60;12.30;;;19.00;99.90;;;;;;5039888;28;20213;-74
2023/03/21 10:49:25;;;;;;;13.52;12.23;;;19.10;99.90;;;;;;5056977;28;20226;-73
2023/03/21 10:51:56;;;;;;;14.40;13.02;;;19.10;99.90;;;;;;5038109;28;20198;-73
2023/03/21 10:54:29;;;;;;;16.05;14.38;;;19.20;99.90;;;;;;5029679;28;20778;-74
2023/03/21 10:57:01;;;;;;;14.82;13.27;;;19.40;99.90;;;;;;5036117;28;20290;-74
2023/03/21 10:59:33;;;;;;;14.52;13.02;;;19.60;99.90;;;;;;5037354;28;20570;-73
2023/03/21 11:02:02;;;;;;;13.85;12.57;;;19.50;99.90;;;;;;5035333;28;20207;-73
2023/03/21 11:04:30;;;;;;;15.13;13.57;;;19.80;99.90;;;;;;5038094;28;20654;-74
2023/03/21 11:07:00;;;;;;;14.32;13.02;;;19.90;99.90;;;;;;5039930;28;20203;-73
2023/03/21 11:09:43;;;;;;;14.82;13.43;;;19.90;99.90;;;;;;5033860;28;20234;-75
2023/03/21 11:12:13;;;;;;;13.98;11.80;;;19.80;99.90;;;;;;5037327;28;20230;-73
2023/03/21 11:14:42;;;;;;;13.50;12.20;;;19.90;99.90;;;;;;5037160;28;20210;-73
2023/03/21 11:17:29;;;;;;;13.82;12.52;;;19.90;99.90;;;;;;5035741;28;20694;-74
2023/03/21 11:19:59;;;;;;;12.65;11.52;;;20.00;99.90;;;;;;5030410;28;20280;-73
2023/03/21 11:22:29;;;;;;;12.85;11.57;;;20.00;99.90;;;;;;5026740;28;20643;-73
2023/03/21 11:25:00;;;;;;;12.27;11.18;;;20.10;99.90;;;;;;5031526;28;20206;-75
2023/03/21 11:27:29;;;;;;;11.35;10.25;;;20.10;99.90;;;;;;5034600;28;20226;-74
2023/03/21 11:29:58;;;;;;;11.55;9.63;;;20.20;99.90;;;;;;5033247;28;20281;-73
2023/03/21 11:32:30;;;;;;;11.77;10.55;;;20.30;99.90;;;;;;5034920;28;20276;-74
2023/03/21 11:35:00;;;;;;;11.98;10.40;;;20.50;99.90;;;;;;5037667;28;20238;-74
2023/03/21 11:37:32;;;;;;;12.35;11.15;;;21.00;99.90;;;;;;5035934;28;20654;-74
2023/03/21 11:40:09;;;;;;;12.05;10.95;;;21.30;99.90;;;;;;5034753;28;20214;-73
2023/03/21 11:42:43;;;;;;;10.95;9.80;;;21.30;99.90;;;;;;5033821;28;20660;-74
2023/03/21 11:45:13;;;;;;;11.52;10.43;;;21.00;99.90;;;;;;5035619;28;20195;-72
2023/03/21 11:47:40;;;;;;;12.98;11.63;;;20.90;99.90;;;;;;5054196;28;20214;-73
2023/03/21 11:50:29;;;;;;;11.73;10.52;;;20.70;99.90;;;;;;5038323;28;20229;-72
2023/03/21 11:53:08;;;;;;;11.95;10.75;;;20.70;99.90;;;;;;5038172;28;20297;-72
2023/03/21 11:55:46;;;;;;;12.88;11.68;;;20.70;99.90;;;;;;5035061;28;20289;-73
2023/03/21 11:58:33;;;;;;;10.73;9.73;;;20.60;99.90;;;;;;5034098;28;20233;-74
2023/03/21 12:01:08;;;;;;;11.90;10.80;;;20.90;99.90;;;;;;5029373;28;20290;-73
2023/03/21 12:04:02;;;;;;;11.27;10.18;;;21.30;99.90;;;;;;5030353;28;20635;-73
2023/03/21 12:06:34;;;;;;;11.77;10.70;;;21.40;99.90;;;;;;5032245;28;20199;-74
2023/03/21 12:09:38;;;;;;;11.82;10.70;;;21.50;99.90;;;;;;5032809;28;20320;-74
2023/03/21 12:12:27;;;;;;;12.55;11.35;;;21.30;99.90;;;;;;5028721;28;20291;-73
2023/03/21 12:15:03;;;;;;;12.68;11.55;;;21.40;99.90;;;;;;5033685;28;20552;-73
2023/03/21 12:17:43;;;;;;;11.60;10.52;;;21.20;99.90;;;;;;5031147;28;20205;-74
2023/03/21 12:20:28;;;;;;;12.07;10.98;;;20.90;99.90;;;;;;5033091;28;20273;-74
2023/03/21 12:23:07;;;;;;;10.82;9.73;;;20.70;99.90;;;;;;5031575;28;20294;-72
2023/03/21 12:25:40;;;;;;;10.82;9.82;;;20.70;99.90;;;;;;5034031;28;20301;-73
2023/03/21 12:28:21;;;;;;;9.90;9.02;;;20.50;99.90;;;;;;5035262;28;20223;-72
2023/03/21 12:30:58;;;;;;;10.52;9.63;;;20.40;99.90;;;;;;5029351;28;20491;-73
2023/03/21 12:33:40;;;;;;;9.93;9.02;;;20.60;99.90;;;;;;5027864;28;20306;-74
2023/03/21 12:36:20;;;;;;;10.57;9.50;;;20.60;99.90;;;;;;5029948;28;20799;-72
2023/03/21 12:38:57;;;;;;;10.60;9.50;;;20.70;99.90;;;;;;5034770;28;20222;-73
2023/03/21 12:41:27;;;;;;;9.13;8.18;;;20.60;99.90;;;;;;5032666;28;20256;-73
2023/03/21 12:44:01;;;;;;;8.10;7.40;;;20.50;99.90;;;;;;5036112;28;20259;-75
2023/03/21 12:46:36;;;;;;;7.13;6.53;;;20.40;99.90;;;;;;5045519;28;20203;-73
2023/03/21 12:49:09;;;;;;;9.43;7.35;;;20.40;99.90;;;;;;5031468;28;20754;-73